sensor_id;sensor_type;location;lat;lon;timestamp;pressure;altitude;pressure_sealevel;temperature;humidity
64632;BME280;58358;50.936;0.246;2023-02-20T00:00:35;102184.96;;;7.08;74.99
64632;BME280;58358;50.936;0.246;2023-02-20T00:03:00;102178.99;;;6.33;77.31
64632;BME280;58358;50.936;0.246;2023-02-20T00:05:25;102173.78;;;6.06;78.28
64632;BME280;58358;50.936;0.246;2023-02-20T00:07:51;102176.12;;;6.65;77.89
64632;BME280;58358;50.936;0.246;2023-02-20T00:10:16;102181.51;;;6.98;75.24
64632;BME280;58358;50.936;0.246;2023-02-20T00:12:42;102179.51;;;6.55;78.69
64632;BME280;58358;50.936;0.246;2023-02-20T00:15:08;102179.16;;;5.30;83.85
64632;BME280;58358;50.936;0.246;2023-02-20T00:17:33;102180.42;;;4.98;86.94
64632;BME280;58358;50.936;0.246;2023-02-20T00:19:58;102176.02;;;5.79;85.33
64632;BME280;58358;50.936;0.246;2023-02-20T00:22:24;102171.27;;;5.98;85.10
64632;BME280;58358;50.936;0.246;2023-02-20T00:24:48;102173.07;;;5.41;87.11
64632;BME280;58358;50.936;0.246;2023-02-20T00:27:14;102170.91;;;6.02;85.07
64632;BME280;58358;50.936;0.246;2023-02-20T00:29:40;102172.84;;;5.78;86.99
64632;BME280;58358;50.936;0.246;2023-02-20T00:32:05;102174.69;;;5.35;87.84
64632;BME280;58358;50.936;0.246;2023-02-20T00:34:31;102169.02;;;4.44;95.92
64632;BME280;58358;50.936;0.246;2023-02-20T00:36:56;102163.32;;;4.16;96.71
64632;BME280;58358;50.936;0.246;2023-02-20T00:39:22;102157.85;;;4.34;96.46
64632;BME280;58358;50.936;0.246;2023-02-20T00:41:48;102155.58;;;5.13;94.85
64632;BME280;58358;50.936;0.246;2023-02-20T00:44:13;102154.63;;;4.81;95.22
64632;BME280;58358;50.936;0.246;2023-02-20T00:46:38;102154.03;;;4.41;97.64
64632;BME280;58358;50.936;0.246;2023-02-20T00:49:04;102153.04;;;4.54;98.66
64632;BME280;58358;50.936;0.246;2023-02-20T00:51:29;102144.52;;;4.05;100.00
64632;BME280;58358;50.936;0.246;2023-02-20T00:53:55;102142.49;;;3.88;100.00
64632;BME280;58358;50.936;0.246;2023-02-20T00:56:21;102139.15;;;5.00;99.88
64632;BME280;58358;50.936;0.246;2023-02-20T00:58:46;102143.99;;;4.97;98.30
64632;BME280;58358;50.936;0.246;2023-02-20T01:01:12;102142.31;;;5.24;95.97
64632;BME280;58358;50.936;0.246;2023-02-20T01:03:37;102136.48;;;4.78;96.91
64632;BME280;58358;50.936;0.246;2023-02-20T01:06:03;102137.53;;;4.97;97.13
64632;BME280;58358;50.936;0.246;2023-02-20T01:08:28;102136.51;;;4.42;99.21
64632;BME280;58358;50.936;0.246;2023-02-20T01:10:54;102134.43;;;4.60;98.65
64632;BME280;58358;50.936;0.246;2023-02-20T01:13:19;102129.82;;;4.60;99.57
64632;BME280;58358;50.936;0.246;2023-02-20T01:15:45;102131.02;;;4.52;100.00
64632;BME280;58358;50.936;0.246;2023-02-20T01:18:10;102130.67;;;4.68;100.00
64632;BME280;58358;50.936;0.246;2023-02-20T01:20:36;102123.15;;;4.37;100.00
64632;BME280;58358;50.936;0.246;2023-02-20T01:23:02;102121.83;;;4.15;100.00
64632;BME280;58358;50.936;0.246;2023-02-20T01:25:27;102122.79;;;4.00;100.00
64632;BME280;58358;50.936;0.246;2023-02-20T01:27:52;102117.86;;;4.05;100.00
64632;BME280;58358;50.936;0.246;2023-02-20T01:30:18;102117.98;;;4.01;100.00
64632;BME280;58358;50.936;0.246;2023-02-20T01:32:43;102122.93;;;3.82;100.00
64632;BME280;58358;50.936;0.246;2023-02-20T01:35:09;102118.09;;;4.01;100.00
64632;BME280;58358;50.936;0.246;2023-02-20T01:37:35;102113.79;;;3.91;100.00
64632;BME280;58358;50.936;0.246;2023-02-20T01:40:00;102113.87;;;4.49;100.00
64632;BME280;58358;50.936;0.246;2023-02-20T01:42:29;102114.95;;;4.43;100.00
64632;BME280;58358;50.936;0.246;2023-02-20T01:44:51;102116.27;;;4.72;100.00
64632;BME280;58358;50.936;0.246;2023-02-20T01:47:18;102110.44;;;4.96;97.93
64632;BME280;58358;50.936;0.246;2023-02-20T01:49:46;102112.87;;;5.25;96.96
64632;BME280;58358;50.936;0.246;2023-02-20T01:52:14;102114.94;;;4.61;97.66
64632;BME280;58358;50.936;0.246;2023-02-20T01:54:35;102111.08;;;6.09;94.69
64632;BME280;58358;50.936;0.246;2023-02-20T01:57:02;102106.82;;;5.20;96.86
64632;BME280;58358;50.936;0.246;2023-02-20T01:59:26;102104.99;;;5.70;97.69
64632;BME280;58358;50.936;0.246;2023-02-20T02:01:51;102101.02;;;5.86;95.13
64632;BME280;58358;50.936;0.246;2023-02-20T02:04:16;102102.64;;;5.26;97.02
64632;BME280;58358;50.936;0.246;2023-02-20T02:06:47;102101.29;;;4.50;99.46
64632;BME280;58358;50.936;0.246;2023-02-20T02:09:14;102098.73;;;6.02;94.89
64632;BME280;58358;50.936;0.246;2023-02-20T02:11:32;102094.63;;;5.15;97.65
64632;BME280;58358;50.936;0.246;2023-02-20T02:13:57;102088.24;;;5.34;95.98
64632;BME280;58358;50.936;0.246;2023-02-20T02:16:28;102085.35;;;3.95;100.00
64632;BME280;58358;50.936;0.246;2023-02-20T02:18:54;102080.68;;;4.80;100.00
64632;BME280;58358;50.936;0.246;2023-02-20T02:23:57;102071.20;;;4.94;98.84
64632;BME280;58358;50.936;0.246;2023-02-20T02:26:18;102074.29;;;4.10;100.00
64632;BME280;58358;50.936;0.246;2023-02-20T02:35:59;102068.44;;;4.13;100.00
64632;BME280;58358;50.936;0.246;2023-02-20T02:38:18;102066.88;;;4.74;100.00
64632;BME280;58358;50.936;0.246;2023-02-20T02:40:41;102070.08;;;4.84;99.73
64632;BME280;58358;50.936;0.246;2023-02-20T02:43:08;102072.48;;;4.62;99.92
64632;BME280;58358;50.936;0.246;2023-02-20T02:45:33;102068.30;;;5.06;98.24
64632;BME280;58358;50.936;0.246;2023-02-20T02:47:58;102066.52;;;4.47;98.96
64632;BME280;58358;50.936;0.246;2023-02-20T02:50:23;102070.04;;;4.70;98.78
64632;BME280;58358;50.936;0.246;2023-02-20T02:52:46;102065.83;;;4.21;100.00
64632;BME280;58358;50.936;0.246;2023-02-20T02:55:12;102058.53;;;3.79;100.00
64632;BME280;58358;50.936;0.246;2023-02-20T02:57:37;102065.64;;;3.66;100.00
64632;BME280;58358;50.936;0.246;2023-02-20T03:00:05;102066.03;;;4.16;100.00
64632;BME280;58358;50.936;0.246;2023-02-20T03:02:32;102065.61;;;4.37;100.00
64632;BME280;58358;50.936;0.246;2023-02-20T03:04:53;102058.71;;;3.52;100.00
64632;BME280;58358;50.936;0.246;2023-02-20T03:07:19;102064.42;;;3.31;100.00
64632;BME280;58358;50.936;0.246;2023-02-20T03:09:46;102065.51;;;3.93;100.00
64632;BME280;58358;50.936;0.246;2023-02-20T03:12:11;102060.10;;;3.87;100.00
64632;BME280;58358;50.936;0.246;2023-02-20T03:14:40;102063.63;;;4.56;99.53
64632;BME280;58358;50.936;0.246;2023-02-20T03:17:07;102061.26;;;3.58;100.00
64632;BME280;58358;50.936;0.246;2023-02-20T03:19:30;102059.05;;;3.24;100.00
64632;BME280;58358;50.936;0.246;2023-02-20T03:21:53;102052.35;;;3.02;100.00
64632;BME280;58358;50.936;0.246;2023-02-20T03:24:18;102050.82;;;3.15;100.00
64632;BME280;58358;50.936;0.246;2023-02-20T03:26:43;102048.15;;;3.84;100.00
64632;BME280;58358;50.936;0.246;2023-02-20T03:29:13;102043.99;;;3.32;100.00
64632;BME280;58358;50.936;0.246;2023-02-20T03:31:36;102047.83;;;3.59;100.00
64632;BME280;58358;50.936;0.246;2023-02-20T03:34:02;102047.81;;;3.56;100.00
64632;BME280;58358;50.936;0.246;2023-02-20T03:36:27;102048.82;;;3.26;100.00
64632;BME280;58358;50.936;0.246;2023-02-20T03:38:58;102047.83;;;3.40;100.00
64632;BME280;58358;50.936;0.246;2023-02-20T03:41:15;102054.40;;;3.70;100.00
64632;BME280;58358;50.936;0.246;2023-02-20T03:43:42;102050.52;;;3.41;100.00
64632;BME280;58358;50.936;0.246;2023-02-20T03:46:09;102044.52;;;3.81;100.00
64632;BME280;58358;50.936;0.246;2023-02-20T03:48:35;102046.07;;;3.74;100.00
64632;BME280;58358;50.936;0.246;2023-02-20T03:50:58;102041.15;;;3.52;100.00
64632;BME280;58358;50.936;0.246;2023-02-20T03:53:24;102044.84;;;3.39;100.00
64632;BME280;58358;50.936;0.246;2023-02-20T03:55:52;102042.63;;;3.69;100.00
64632;BME280;58358;50.936;0.246;2023-02-20T03:58:16;102039.35;;;3.68;100.00
64632;BME280;58358;50.936;0.246;2023-02-20T04:00:43;102036.68;;;3.32;100.00
64632;BME280;58358;50.936;0.246;2023-02-20T04:03:10;102040.34;;;4.09;100.00
64632;BME280;58358;50.936;0.246;2023-02-20T04:05:35;102032.96;;;3.79;100.00
64632;BME280;58358;50.936;0.246;2023-02-20T04:08:00;102036.30;;;3.98;100.00
64632;BME280;58358;50.936;0.246;2023-02-20T04:10:25;102041.43;;;4.12;100.00
64632;BME280;58358;50.936;0.246;2023-02-20T04:12:49;102043.00;;;5.22;96.92
64632;BME280;58358;50.936;0.246;2023-02-20T04:15:13;102042.39;;;4.59;97.84
64632;BME280;58358;50.936;0.246;2023-02-20T04:17:41;102040.96;;;4.75;97.45
64632;BME280;58358;50.936;0.246;2023-02-20T04:20:04;102037.09;;;5.05;95.97
64632;BME280;58358;50.936;0.246;2023-02-20T04:22:32;102036.84;;;5.02;95.57
64632;BME280;58358;50.936;0.246;2023-02-20T04:24:57;102040.85;;;4.29;96.44
64632;BME280;58358;50.936;0.246;2023-02-20T04:27:20;102039.51;;;4.23;97.68
64632;BME280;58358;50.936;0.246;2023-02-20T04:29:46;102042.06;;;3.71;100.00
64632;BME280;58358;50.936;0.246;2023-02-20T04:32:11;102041.33;;;3.51;100.00
64632;BME280;58358;50.936;0.246;2023-02-20T04:34:37;102037.26;;;3.84;100.00
64632;BME280;58358;50.936;0.246;2023-02-20T04:37:06;102036.80;;;3.65;100.00
64632;BME280;58358;50.936;0.246;2023-02-20T04:39:27;102036.56;;;3.92;100.00
64632;BME280;58358;50.936;0.246;2023-02-20T04:41:53;102039.23;;;3.97;100.00
64632;BME280;58358;50.936;0.246;2023-02-20T04:44:18;102036.48;;;4.07;100.00
64632;BME280;58358;50.936;0.246;2023-02-20T04:46:44;102033.69;;;3.64;100.00
64632;BME280;58358;50.936;0.246;2023-02-20T04:49:09;102033.44;;;4.36;100.00
64632;BME280;58358;50.936;0.246;2023-02-20T04:51:35;102028.31;;;3.97;100.00
64632;BME280;58358;50.936;0.246;2023-02-20T04:54:01;102038.14;;;3.66;100.00
64632;BME280;58358;50.936;0.246;2023-02-20T04:56:27;102033.67;;;3.36;100.00
64632;BME280;58358;50.936;0.246;2023-02-20T04:58:53;102035.43;;;3.98;100.00
64632;BME280;58358;50.936;0.246;2023-02-20T05:01:18;102038.16;;;4.15;100.00
64632;BME280;58358;50.936;0.246;2023-02-20T05:03:44;102039.63;;;3.93;100.00
64632;BME280;58358;50.936;0.246;2023-02-20T05:06:09;102042.30;;;4.14;99.78
64632;BME280;58358;50.936;0.246;2023-02-20T05:08:35;102043.60;;;4.26;99.39
64632;BME280;58358;50.936;0.246;2023-02-20T05:11:00;102043.70;;;4.60;96.93
64632;BME280;58358;50.936;0.246;2023-02-20T05:13:26;102041.82;;;3.91;99.99
64632;BME280;58358;50.936;0.246;2023-02-20T05:15:52;102039.30;;;3.37;100.00
64632;BME280;58358;50.936;0.246;2023-02-20T05:18:23;102038.09;;;4.30;100.00
64632;BME280;58358;50.936;0.246;2023-02-20T05:20:43;102033.20;;;3.53;100.00
64632;BME280;58358;50.936;0.246;2023-02-20T05:23:09;102033.44;;;3.85;100.00
64632;BME280;58358;50.936;0.246;2023-02-20T05:25:34;102036.05;;;3.91;100.00
64632;BME280;58358;50.936;0.246;2023-02-20T05:28:00;102041.45;;;3.72;100.00
64632;BME280;58358;50.936;0.246;2023-02-20T05:30:24;102032.86;;;4.16;100.00
64632;BME280;58358;50.936;0.246;2023-02-20T05:32:50;102036.70;;;4.27;100.00
64632;BME280;58358;50.936;0.246;2023-02-20T05:35:15;102033.82;;;5.37;98.24
64632;BME280;58358;50.936;0.246;2023-02-20T05:37:41;102032.66;;;4.21;100.00
64632;BME280;58358;50.936;0.246;2023-02-20T05:40:06;102030.29;;;4.90;97.29
64632;BME280;58358;50.936;0.246;2023-02-20T05:42:32;102034.67;;;4.82;98.20
64632;BME280;58358;50.936;0.246;2023-02-20T05:44:57;102034.11;;;5.02;95.25
64632;BME280;58358;50.936;0.246;2023-02-20T05:47:22;102032.35;;;4.31;98.82
64632;BME280;58358;50.936;0.246;2023-02-20T05:49:48;102026.28;;;3.52;100.00
64632;BME280;58358;50.936;0.246;2023-02-20T05:52:14;102028.18;;;4.52;100.00
64632;BME280;58358;50.936;0.246;2023-02-20T05:54:40;102026.06;;;3.91;99.57
64632;BME280;58358;50.936;0.246;2023-02-20T05:57:07;102024.30;;;4.23;99.15
64632;BME280;58358;50.936;0.246;2023-02-20T05:59:30;102022.07;;;3.86;100.00
64632;BME280;58358;50.936;0.246;2023-02-20T06:01:57;102021.76;;;4.01;100.00
64632;BME280;58358;50.936;0.246;2023-02-20T06:04:21;102027.19;;;4.18;100.00
64632;BME280;58358;50.936;0.246;2023-02-20T06:06:47;102029.60;;;4.78;98.92
64632;BME280;58358;50.936;0.246;2023-02-20T06:09:13;102025.65;;;5.02;95.83
64632;BME280;58358;50.936;0.246;2023-02-20T06:11:39;102022.12;;;6.08;91.72
64632;BME280;58358;50.936;0.246;2023-02-20T06:14:06;102022.99;;;4.22;96.70
64632;BME280;58358;50.936;0.246;2023-02-20T06:16:31;102020.65;;;4.91;96.78
64632;BME280;58358;50.936;0.246;2023-02-20T06:18:56;102026.53;;;3.95;99.14
64632;BME280;58358;50.936;0.246;2023-02-20T06:21:22;102031.40;;;4.05;99.15
64632;BME280;58358;50.936;0.246;2023-02-20T06:23:47;102031.91;;;4.79;98.72
64632;BME280;58358;50.936;0.246;2023-02-20T06:26:14;102031.44;;;3.78;100.00
64632;BME280;58358;50.936;0.246;2023-02-20T06:28:39;102031.41;;;4.18;100.00
64632;BME280;58358;50.936;0.246;2023-02-20T06:31:04;102030.30;;;4.50;98.50
64632;BME280;58358;50.936;0.246;2023-02-20T06:33:29;102030.01;;;4.31;99.31
64632;BME280;58358;50.936;0.246;2023-02-20T06:35:54;102027.56;;;3.85;99.63
64632;BME280;58358;50.936;0.246;2023-02-20T06:38:20;102032.47;;;4.43;95.69
64632;BME280;58358;50.936;0.246;2023-02-20T06:40:45;102029.50;;;4.48;95.00
64632;BME280;58358;50.936;0.246;2023-02-20T06:43:10;102046.06;;;4.49;97.77
64632;BME280;58358;50.936;0.246;2023-02-20T06:45:36;102042.14;;;3.51;100.00
64632;BME280;58358;50.936;0.246;2023-02-20T06:48:02;102046.16;;;3.81;100.00
64632;BME280;58358;50.936;0.246;2023-02-20T06:50:28;102052.61;;;4.02;99.53
64632;BME280;58358;50.936;0.246;2023-02-20T06:52:54;102047.86;;;4.07;98.12
64632;BME280;58358;50.936;0.246;2023-02-20T06:55:19;102046.86;;;4.12;99.14
64632;BME280;58358;50.936;0.246;2023-02-20T06:57:45;102042.58;;;4.55;96.92
64632;BME280;58358;50.936;0.246;2023-02-20T07:00:13;102035.80;;;4.55;95.31
64632;BME280;58358;50.936;0.246;2023-02-20T07:02:36;102027.13;;;4.43;95.24
64632;BME280;58358;50.936;0.246;2023-02-20T07:05:02;102027.39;;;4.80;93.85
64632;BME280;58358;50.936;0.246;2023-02-20T07:07:28;102031.93;;;4.41;96.30
64632;BME280;58358;50.936;0.246;2023-02-20T07:09:54;102027.68;;;4.53;95.62
64632;BME280;58358;50.936;0.246;2023-02-20T07:12:20;102026.31;;;5.53;92.56
64632;BME280;58358;50.936;0.246;2023-02-20T07:14:44;102022.73;;;6.00;89.85
64632;BME280;58358;50.936;0.246;2023-02-20T07:17:10;102016.77;;;4.92;92.56
64632;BME280;58358;50.936;0.246;2023-02-20T07:19:35;102012.67;;;5.00;94.08
64632;BME280;58358;50.936;0.246;2023-02-20T07:22:01;102020.09;;;5.04;94.32
64632;BME280;58358;50.936;0.246;2023-02-20T07:24:26;102023.03;;;5.13;94.85
64632;BME280;58358;50.936;0.246;2023-02-20T07:26:51;102030.42;;;4.42;97.47
64632;BME280;58358;50.936;0.246;2023-02-20T07:29:17;102030.81;;;4.50;95.74
64632;BME280;58358;50.936;0.246;2023-02-20T07:31:43;102033.26;;;5.81;93.60
64632;BME280;58358;50.936;0.246;2023-02-20T07:34:08;102032.43;;;6.18;89.99
64632;BME280;58358;50.936;0.246;2023-02-20T07:36:34;102040.30;;;6.21;88.58
64632;BME280;58358;50.936;0.246;2023-02-20T07:39:00;102040.27;;;6.45;89.37
64632;BME280;58358;50.936;0.246;2023-02-20T07:41:26;102042.61;;;5.76;89.20
64632;BME280;58358;50.936;0.246;2023-02-20T07:43:51;102046.11;;;5.57;89.20
64632;BME280;58358;50.936;0.246;2023-02-20T07:46:16;102048.37;;;5.89;90.40
64632;BME280;58358;50.936;0.246;2023-02-20T07:48:42;102044.30;;;5.85;91.48
64632;BME280;58358;50.936;0.246;2023-02-20T07:51:07;102045.00;;;5.29;92.39
64632;BME280;58358;50.936;0.246;2023-02-20T07:53:33;102049.02;;;5.71;91.49
64632;BME280;58358;50.936;0.246;2023-02-20T07:55:59;102055.58;;;5.63;93.03
64632;BME280;58358;50.936;0.246;2023-02-20T07:58:24;102059.06;;;5.05;93.32
64632;BME280;58358;50.936;0.246;2023-02-20T08:00:50;102059.93;;;4.98;96.83
64632;BME280;58358;50.936;0.246;2023-02-20T08:03:16;102069.34;;;5.34;95.10
64632;BME280;58358;50.936;0.246;2023-02-20T08:05:42;102070.10;;;5.55;94.84
64632;BME280;58358;50.936;0.246;2023-02-20T08:08:07;102076.32;;;5.35;94.83
64632;BME280;58358;50.936;0.246;2023-02-20T08:10:33;102078.70;;;5.48;93.80
64632;BME280;58358;50.936;0.246;2023-02-20T08:12:58;102075.36;;;5.69;91.90
64632;BME280;58358;50.936;0.246;2023-02-20T08:15:24;102075.24;;;5.44;93.18
64632;BME280;58358;50.936;0.246;2023-02-20T08:17:50;102073.19;;;5.59;91.81
64632;BME280;58358;50.936;0.246;2023-02-20T08:20:17;102077.54;;;4.92;93.60
64632;BME280;58358;50.936;0.246;2023-02-20T08:22:42;102082.73;;;5.45;94.66
64632;BME280;58358;50.936;0.246;2023-02-20T08:25:07;102081.27;;;5.26;94.16
64632;BME280;58358;50.936;0.246;2023-02-20T08:27:32;102078.51;;;5.37;95.40
64632;BME280;58358;50.936;0.246;2023-02-20T08:29:58;102076.83;;;5.12;95.48
64632;BME280;58358;50.936;0.246;2023-02-20T08:32:24;102077.23;;;5.42;93.96
64632;BME280;58358;50.936;0.246;2023-02-20T08:34:49;102069.30;;;5.84;92.99
64632;BME280;58358;50.936;0.246;2023-02-20T08:37:14;102071.27;;;5.69;92.89
64632;BME280;58358;50.936;0.246;2023-02-20T08:39:40;102067.70;;;5.49;93.14
64632;BME280;58358;50.936;0.246;2023-02-20T08:42:05;102065.51;;;6.10;90.16
64632;BME280;58358;50.936;0.246;2023-02-20T08:44:30;102062.86;;;5.83;90.99
64632;BME280;58358;50.936;0.246;2023-02-20T08:46:56;102059.34;;;5.75;91.97
64632;BME280;58358;50.936;0.246;2023-02-20T08:49:22;102056.81;;;5.02;94.02
64632;BME280;58358;50.936;0.246;2023-02-20T08:51:51;102054.85;;;5.23;94.26
64632;BME280;58358;50.936;0.246;2023-02-20T08:54:14;102048.60;;;5.57;93.14
64632;BME280;58358;50.936;0.246;2023-02-20T08:56:39;102048.74;;;5.66;94.44
64632;BME280;58358;50.936;0.246;2023-02-20T08:59:04;102046.98;;;5.94;92.12
64632;BME280;58358;50.936;0.246;2023-02-20T09:01:29;102046.08;;;6.43;90.39
64632;BME280;58358;50.936;0.246;2023-02-20T09:03:55;102044.11;;;6.59;88.52
64632;BME280;58358;50.936;0.246;2023-02-20T09:06:20;102042.78;;;6.14;89.74
64632;BME280;58358;50.936;0.246;2023-02-20T09:08:46;102045.72;;;6.12;90.19
64632;BME280;58358;50.936;0.246;2023-02-20T09:11:12;102043.60;;;6.27;90.29
64632;BME280;58358;50.936;0.246;2023-02-20T09:13:41;102049.16;;;7.28;88.77
64632;BME280;58358;50.936;0.246;2023-02-20T09:16:06;102050.42;;;6.24;90.98
64632;BME280;58358;50.936;0.246;2023-02-20T09:18:28;102052.44;;;5.88;92.45
64632;BME280;58358;50.936;0.246;2023-02-20T09:20:55;102055.79;;;7.37;89.79
64632;BME280;58358;50.936;0.246;2023-02-20T09:23:20;102054.15;;;7.06;88.61
64632;BME280;58358;50.936;0.246;2023-02-20T09:25:46;102056.68;;;5.85;93.17
64632;BME280;58358;50.936;0.246;2023-02-20T09:28:11;102062.39;;;5.76;95.94
64632;BME280;58358;50.936;0.246;2023-02-20T09:30:37;102061.89;;;5.85;94.62
64632;BME280;58358;50.936;0.246;2023-02-20T09:33:02;102069.19;;;5.81;93.66
64632;BME280;58358;50.936;0.246;2023-02-20T09:35:29;102062.92;;;6.39;92.17
64632;BME280;58358;50.936;0.246;2023-02-20T09:37:54;102061.94;;;5.70;95.31
64632;BME280;58358;50.936;0.246;2023-02-20T09:40:20;102061.47;;;5.46;97.41
64632;BME280;58358;50.936;0.246;2023-02-20T09:42:55;102061.76;;;6.62;92.79
64632;BME280;58358;50.936;0.246;2023-02-20T09:45:13;102061.77;;;6.09;92.44
64632;BME280;58358;50.936;0.246;2023-02-20T09:47:48;102060.55;;;5.65;94.55
64632;BME280;58358;50.936;0.246;2023-02-20T09:50:05;102051.69;;;6.19;92.57
64632;BME280;58358;50.936;0.246;2023-02-20T09:52:28;102062.45;;;6.75;91.89
64632;BME280;58358;50.936;0.246;2023-02-20T09:54:59;102061.22;;;6.52;91.41
64632;BME280;58358;50.936;0.246;2023-02-20T09:57:24;102061.90;;;6.91;89.83
64632;BME280;58358;50.936;0.246;2023-02-20T09:59:47;102053.37;;;6.09;91.42
64632;BME280;58358;50.936;0.246;2023-02-20T10:02:15;102055.52;;;6.17;92.59
64632;BME280;58358;50.936;0.246;2023-02-20T10:04:38;102055.64;;;6.72;89.30
64632;BME280;58358;50.936;0.246;2023-02-20T10:07:07;102051.28;;;6.59;89.51
64632;BME280;58358;50.936;0.246;2023-02-20T10:09:25;102047.05;;;5.80;92.77
64632;BME280;58358;50.936;0.246;2023-02-20T10:11:59;102047.58;;;6.07;94.16
64632;BME280;58358;50.936;0.246;2023-02-20T10:14:31;102046.59;;;5.96;94.58
64632;BME280;58358;50.936;0.246;2023-02-20T10:16:49;102049.02;;;6.51;92.63
64632;BME280;58358;50.936;0.246;2023-02-20T10:19:16;102051.18;;;6.06;94.30
64632;BME280;58358;50.936;0.246;2023-02-20T10:21:44;102045.82;;;6.08;92.32
64632;BME280;58358;50.936;0.246;2023-02-20T10:24:05;102048.98;;;5.91;93.66
64632;BME280;58358;50.936;0.246;2023-02-20T10:26:27;102053.18;;;5.46;95.20
64632;BME280;58358;50.936;0.246;2023-02-20T10:28:50;102048.18;;;5.19;97.56
64632;BME280;58358;50.936;0.246;2023-02-20T10:31:27;102041.25;;;5.49;96.71
64632;BME280;58358;50.936;0.246;2023-02-20T10:33:43;102036.13;;;6.06;94.75
64632;BME280;58358;50.936;0.246;2023-02-20T10:36:11;102039.11;;;5.18;94.27
64632;BME280;58358;50.936;0.246;2023-02-20T10:38:37;102036.87;;;5.81;94.57
64632;BME280;58358;50.936;0.246;2023-02-20T10:41:02;102032.30;;;5.39;96.72
64632;BME280;58358;50.936;0.246;2023-02-20T10:43:27;102029.60;;;6.13;93.91
64632;BME280;58358;50.936;0.246;2023-02-20T10:45:53;102023.13;;;5.99;93.87
64632;BME280;58358;50.936;0.246;2023-02-20T10:48:13;102020.61;;;6.12;94.13
64632;BME280;58358;50.936;0.246;2023-02-20T10:50:41;102015.84;;;5.62;95.69
64632;BME280;58358;50.936;0.246;2023-02-20T10:53:12;102014.52;;;5.55;96.52
64632;BME280;58358;50.936;0.246;2023-02-20T10:55:36;102017.47;;;6.12;96.47
64632;BME280;58358;50.936;0.246;2023-02-20T10:57:57;102021.80;;;5.84;94.80
64632;BME280;58358;50.936;0.246;2023-02-20T11:00:26;102019.66;;;5.45;95.86
64632;BME280;58358;50.936;0.246;2023-02-20T11:02:51;102017.87;;;5.75;97.07
64632;BME280;58358;50.936;0.246;2023-02-20T11:05:15;102007.82;;;5.78;95.48
64632;BME280;58358;50.936;0.246;2023-02-20T11:07:38;102009.81;;;5.83;96.41
64632;BME280;58358;50.936;0.246;2023-02-20T11:10:04;102006.59;;;5.97;96.16
64632;BME280;58358;50.936;0.246;2023-02-20T11:12:33;102005.73;;;5.91;96.18
64632;BME280;58358;50.936;0.246;2023-02-20T11:14:58;102007.23;;;5.59;96.39
64632;BME280;58358;50.936;0.246;2023-02-20T11:17:23;102009.08;;;5.11;98.92
64632;BME280;58358;50.936;0.246;2023-02-20T11:19:47;102010.83;;;4.99;100.00
64632;BME280;58358;50.936;0.246;2023-02-20T11:22:13;102012.64;;;5.32;99.12
64632;BME280;58358;50.936;0.246;2023-02-20T11:24:38;102010.45;;;5.46;97.32
64632;BME280;58358;50.936;0.246;2023-02-20T11:27:09;102013.42;;;5.94;96.30
64632;BME280;58358;50.936;0.246;2023-02-20T11:29:37;102017.91;;;5.88;96.20
64632;BME280;58358;50.936;0.246;2023-02-20T11:34:23;102009.65;;;5.73;97.69
64632;BME280;58358;50.936;0.246;2023-02-20T11:36:50;102017.57;;;5.67;97.54
64632;BME280;58358;50.936;0.246;2023-02-20T11:39:20;102019.70;;;5.84;95.13
64632;BME280;58358;50.936;0.246;2023-02-20T11:41:37;102017.24;;;6.64;92.23
64632;BME280;58358;50.936;0.246;2023-02-20T11:44:09;102008.88;;;6.45;92.93
64632;BME280;58358;50.936;0.246;2023-02-20T11:46:28;102011.99;;;5.62;95.26
64632;BME280;58358;50.936;0.246;2023-02-20T11:48:59;102007.39;;;6.26;93.45
64632;BME280;58358;50.936;0.246;2023-02-20T11:51:31;102006.11;;;6.95;91.53
64632;BME280;58358;50.936;0.246;2023-02-20T11:53:45;102000.80;;;7.10;89.98
64632;BME280;58358;50.936;0.246;2023-02-20T11:56:12;101998.27;;;6.75;92.40
64632;BME280;58358;50.936;0.246;2023-02-20T11:58:37;101994.95;;;6.43;93.37
64632;BME280;58358;50.936;0.246;2023-02-20T12:01:02;101984.36;;;6.50;93.01
64632;BME280;58358;50.936;0.246;2023-02-20T12:03:29;101985.61;;;6.26;95.35
64632;BME280;58358;50.936;0.246;2023-02-20T12:05:54;101976.96;;;5.88;95.36
64632;BME280;58358;50.936;0.246;2023-02-20T12:08:32;101975.96;;;6.58;94.50
64632;BME280;58358;50.936;0.246;2023-02-20T12:10:46;101973.26;;;7.02;92.17
64632;BME280;58358;50.936;0.246;2023-02-20T12:13:13;101958.97;;;7.28;91.27
64632;BME280;58358;50.936;0.246;2023-02-20T12:15:36;101958.79;;;6.63;93.57
64632;BME280;58358;50.936;0.246;2023-02-20T12:18:23;101961.20;;;6.97;92.52
64632;BME280;58358;50.936;0.246;2023-02-20T12:20:28;101953.88;;;7.42;90.08
64632;BME280;58358;50.936;0.246;2023-02-20T12:23:01;101953.32;;;8.05;87.97
64632;BME280;58358;50.936;0.246;2023-02-20T12:25:25;101955.39;;;6.85;89.00
64632;BME280;58358;50.936;0.246;2023-02-20T12:27:55;101945.54;;;7.47;90.39
64632;BME280;58358;50.936;0.246;2023-02-20T12:30:23;101944.54;;;7.28;90.15
64632;BME280;58358;50.936;0.246;2023-02-20T12:32:44;101940.46;;;6.82;91.89
64632;BME280;58358;50.936;0.246;2023-02-20T12:37:34;101929.00;;;6.28;95.67
64632;BME280;58358;50.936;0.246;2023-02-20T12:39:59;101931.02;;;6.94;94.32
64632;BME280;58358;50.936;0.246;2023-02-20T12:42:25;101935.95;;;6.26;96.51
64632;BME280;58358;50.936;0.246;2023-02-20T12:44:53;101931.16;;;5.51;98.81
64632;BME280;58358;50.936;0.246;2023-02-20T12:47:15;101925.39;;;6.67;94.77
64632;BME280;58358;50.936;0.246;2023-02-20T12:49:53;101922.88;;;7.07;93.27
64632;BME280;58358;50.936;0.246;2023-02-20T12:52:03;101921.76;;;6.16;95.49
64632;BME280;58358;50.936;0.246;2023-02-20T12:54:34;101917.41;;;5.62;100.00
64632;BME280;58358;50.936;0.246;2023-02-20T12:57:03;101915.62;;;5.81;98.66
64632;BME280;58358;50.936;0.246;2023-02-20T12:59:24;101912.28;;;6.43;98.04
64632;BME280;58358;50.936;0.246;2023-02-20T13:01:43;101907.03;;;6.14;97.76